sensor_id;sensor_type;location;lat;lon;timestamp;P1;durP1;ratioP1;P2;durP2;ratioP2
5121;SDS011;2563;52.242;7.956;2023-04-28T00:01:15;3.90;;;2.20;;
5121;SDS011;2563;52.242;7.956;2023-04-28T00:03:41;9.73;;;3.20;;
5121;SDS011;2563;52.242;7.956;2023-04-28T00:06:06;7.93;;;3.10;;
5121;SDS011;2563;52.242;7.956;2023-04-28T00:08:32;5.77;;;2.70;;
5121;SDS011;2563;52.242;7.956;2023-04-28T00:10:57;10.53;;;3.27;;
5121;SDS011;2563;52.242;7.956;2023-04-28T00:13:23;7.20;;;3.00;;
5121;SDS011;2563;52.242;7.956;2023-04-28T00:15:49;6.23;;;3.20;;
5121;SDS011;2563;52.242;7.956;2023-04-28T00:18:16;8.80;;;2.97;;
5121;SDS011;2563;52.242;7.956;2023-04-28T00:20:42;6.43;;;3.10;;
5121;SDS011;2563;52.242;7.956;2023-04-28T00:23:08;13.43;;;3.47;;
5121;SDS011;2563;52.242;7.956;2023-04-28T00:25:33;5.57;;;3.10;;
5121;SDS011;2563;52.242;7.956;2023-04-28T00:27:59;9.83;;;3.00;;
5121;SDS011;2563;52.242;7.956;2023-04-28T00:30:24;8.77;;;3.30;;
5121;SDS011;2563;52.242;7.956;2023-04-28T00:32:49;7.60;;;2.57;;
5121;SDS011;2563;52.242;7.956;2023-04-28T00:35:15;9.13;;;3.53;;
5121;SDS011;2563;52.242;7.956;2023-04-28T00:37:41;9.60;;;3.30;;
5121;SDS011;2563;52.242;7.956;2023-04-28T00:40:06;6.50;;;3.30;;
5121;SDS011;2563;52.242;7.956;2023-04-28T00:42:32;7.37;;;2.93;;
5121;SDS011;2563;52.242;7.956;2023-04-28T00:44:57;7.30;;;3.30;;
5121;SDS011;2563;52.242;7.956;2023-04-28T00:47:23;6.43;;;2.90;;
5121;SDS011;2563;52.242;7.956;2023-04-28T00:49:48;5.10;;;2.57;;
5121;SDS011;2563;52.242;7.956;2023-04-28T00:52:14;6.63;;;3.63;;
5121;SDS011;2563;52.242;7.956;2023-04-28T00:54:40;7.10;;;3.40;;
5121;SDS011;2563;52.242;7.956;2023-04-28T00:57:07;7.50;;;3.30;;
5121;SDS011;2563;52.242;7.956;2023-04-28T00:59:33;14.43;;;3.67;;
5121;SDS011;2563;52.242;7.956;2023-04-28T01:01:59;7.83;;;3.30;;
5121;SDS011;2563;52.242;7.956;2023-04-28T01:04:25;9.03;;;3.77;;
5121;SDS011;2563;52.242;7.956;2023-04-28T01:06:53;8.10;;;3.23;;
5121;SDS011;2563;52.242;7.956;2023-04-28T01:09:20;11.97;;;3.33;;
5121;SDS011;2563;52.242;7.956;2023-04-28T01:11:45;6.77;;;3.20;;
5121;SDS011;2563;52.242;7.956;2023-04-28T01:14:10;7.60;;;3.20;;
5121;SDS011;2563;52.242;7.956;2023-04-28T01:16:36;6.43;;;3.20;;
5121;SDS011;2563;52.242;7.956;2023-04-28T01:19:02;11.80;;;4.00;;
5121;SDS011;2563;52.242;7.956;2023-04-28T01:21:31;6.43;;;3.50;;
5121;SDS011;2563;52.242;7.956;2023-04-28T01:23:58;8.00;;;2.90;;
5121;SDS011;2563;52.242;7.956;2023-04-28T01:26:24;6.80;;;3.60;;
5121;SDS011;2563;52.242;7.956;2023-04-28T01:28:49;7.87;;;3.40;;
5121;SDS011;2563;52.242;7.956;2023-04-28T01:31:15;5.33;;;3.23;;
5121;SDS011;2563;52.242;7.956;2023-04-28T01:33:40;12.50;;;3.00;;
5121;SDS011;2563;52.242;7.956;2023-04-28T01:36:06;8.80;;;3.40;;
5121;SDS011;2563;52.242;7.956;2023-04-28T01:38:31;9.30;;;3.13;;
5121;SDS011;2563;52.242;7.956;2023-04-28T01:40:57;6.23;;;3.20;;
5121;SDS011;2563;52.242;7.956;2023-04-28T01:43:23;6.20;;;3.33;;
5121;SDS011;2563;52.242;7.956;2023-04-28T01:45:49;8.37;;;3.50;;
5121;SDS011;2563;52.242;7.956;2023-04-28T01:48:15;5.80;;;3.07;;
5121;SDS011;2563;52.242;7.956;2023-04-28T01:50:40;8.37;;;3.80;;
5121;SDS011;2563;52.242;7.956;2023-04-28T01:53:06;9.73;;;3.67;;
5121;SDS011;2563;52.242;7.956;2023-04-28T01:55:31;7.20;;;3.43;;
5121;SDS011;2563;52.242;7.956;2023-04-28T01:57:56;6.17;;;3.30;;
5121;SDS011;2563;52.242;7.956;2023-04-28T02:00:22;8.20;;;4.20;;
5121;SDS011;2563;52.242;7.956;2023-04-28T02:02:48;9.43;;;3.30;;
5121;SDS011;2563;52.242;7.956;2023-04-28T02:05:14;6.17;;;3.30;;
5121;SDS011;2563;52.242;7.956;2023-04-28T02:07:39;5.80;;;3.47;;
5121;SDS011;2563;52.242;7.956;2023-04-28T02:10:05;6.97;;;3.30;;
5121;SDS011;2563;52.242;7.956;2023-04-28T02:12:31;7.90;;;3.27;;
5121;SDS011;2563;52.242;7.956;2023-04-28T02:14:57;8.47;;;3.60;;
5121;SDS011;2563;52.242;7.956;2023-04-28T02:17:22;7.60;;;3.60;;
5121;SDS011;2563;52.242;7.956;2023-04-28T02:19:52;8.17;;;3.40;;
5121;SDS011;2563;52.242;7.956;2023-04-28T02:22:18;6.90;;;3.67;;
5121;SDS011;2563;52.242;7.956;2023-04-28T02:24:44;10.73;;;4.27;;
5121;SDS011;2563;52.242;7.956;2023-04-28T02:27:09;6.97;;;3.30;;
5121;SDS011;2563;52.242;7.956;2023-04-28T02:29:35;9.40;;;3.10;;
5121;SDS011;2563;52.242;7.956;2023-04-28T02:32:00;6.30;;;3.17;;
5121;SDS011;2563;52.242;7.956;2023-04-28T02:34:26;7.33;;;3.70;;
5121;SDS011;2563;52.242;7.956;2023-04-28T02:36:51;6.90;;;3.27;;
5121;SDS011;2563;52.242;7.956;2023-04-28T02:39:16;9.37;;;3.17;;
5121;SDS011;2563;52.242;7.956;2023-04-28T02:41:42;7.90;;;3.33;;
5121;SDS011;2563;52.242;7.956;2023-04-28T02:44:07;13.13;;;3.10;;
5121;SDS011;2563;52.242;7.956;2023-04-28T02:46:32;6.03;;;3.10;;
5121;SDS011;2563;52.242;7.956;2023-04-28T02:48:58;6.67;;;3.53;;
5121;SDS011;2563;52.242;7.956;2023-04-28T02:51:23;6.43;;;3.60;;
5121;SDS011;2563;52.242;7.956;2023-04-28T02:53:49;6.50;;;3.47;;
5121;SDS011;2563;52.242;7.956;2023-04-28T02:56:14;5.13;;;3.00;;
5121;SDS011;2563;52.242;7.956;2023-04-28T02:58:40;7.27;;;3.33;;
5121;SDS011;2563;52.242;7.956;2023-04-28T03:01:05;8.33;;;2.97;;
5121;SDS011;2563;52.242;7.956;2023-04-28T03:03:31;10.50;;;3.30;;
5121;SDS011;2563;52.242;7.956;2023-04-28T03:05:56;7.10;;;3.60;;
5121;SDS011;2563;52.242;7.956;2023-04-28T03:08:21;11.27;;;3.70;;
5121;SDS011;2563;52.242;7.956;2023-04-28T03:10:47;9.40;;;3.60;;
5121;SDS011;2563;52.242;7.956;2023-04-28T03:13:12;10.50;;;3.60;;
5121;SDS011;2563;52.242;7.956;2023-04-28T03:15:38;7.20;;;3.77;;
5121;SDS011;2563;52.242;7.956;2023-04-28T03:18:03;9.50;;;3.10;;
5121;SDS011;2563;52.242;7.956;2023-04-28T03:20:28;7.07;;;3.90;;
5121;SDS011;2563;52.242;7.956;2023-04-28T03:22:54;7.13;;;3.70;;
5121;SDS011;2563;52.242;7.956;2023-04-28T03:25:19;6.77;;;3.37;;
5121;SDS011;2563;52.242;7.956;2023-04-28T03:27:45;8.60;;;3.40;;
5121;SDS011;2563;52.242;7.956;2023-04-28T03:30:10;5.87;;;3.80;;
5121;SDS011;2563;52.242;7.956;2023-04-28T03:32:36;13.33;;;4.77;;
5121;SDS011;2563;52.242;7.956;2023-04-28T03:35:01;8.03;;;3.70;;
5121;SDS011;2563;52.242;7.956;2023-04-28T03:37:27;6.87;;;3.00;;
5121;SDS011;2563;52.242;7.956;2023-04-28T03:39:52;6.60;;;3.73;;
5121;SDS011;2563;52.242;7.956;2023-04-28T03:42:17;12.07;;;4.27;;
5121;SDS011;2563;52.242;7.956;2023-04-28T03:44:43;6.50;;;3.80;;
5121;SDS011;2563;52.242;7.956;2023-04-28T03:47:08;8.47;;;3.70;;
5121;SDS011;2563;52.242;7.956;2023-04-28T03:49:34;8.80;;;4.17;;
5121;SDS011;2563;52.242;7.956;2023-04-28T03:51:59;10.23;;;3.80;;
5121;SDS011;2563;52.242;7.956;2023-04-28T03:54:25;7.00;;;3.63;;
5121;SDS011;2563;52.242;7.956;2023-04-28T03:56:50;9.67;;;4.50;;
5121;SDS011;2563;52.242;7.956;2023-04-28T03:59:16;8.90;;;4.00;;
5121;SDS011;2563;52.242;7.956;2023-04-28T04:01:41;6.57;;;3.43;;
5121;SDS011;2563;52.242;7.956;2023-04-28T04:04:07;9.20;;;4.53;;
5121;SDS011;2563;52.242;7.956;2023-04-28T04:06:32;8.67;;;4.03;;
5121;SDS011;2563;52.242;7.956;2023-04-28T04:08:58;14.83;;;4.30;;
5121;SDS011;2563;52.242;7.956;2023-04-28T04:11:23;9.83;;;4.13;;
5121;SDS011;2563;52.242;7.956;2023-04-28T04:13:48;11.33;;;4.00;;
5121;SDS011;2563;52.242;7.956;2023-04-28T04:16:14;13.73;;;4.40;;
5121;SDS011;2563;52.242;7.956;2023-04-28T04:18:40;11.47;;;3.90;;
5121;SDS011;2563;52.242;7.956;2023-04-28T04:21:05;11.90;;;4.07;;
5121;SDS011;2563;52.242;7.956;2023-04-28T04:23:31;14.70;;;4.00;;
5121;SDS011;2563;52.242;7.956;2023-04-28T04:25:56;15.10;;;5.93;;
5121;SDS011;2563;52.242;7.956;2023-04-28T04:28:22;10.90;;;4.77;;
5121;SDS011;2563;52.242;7.956;2023-04-28T04:30:47;9.50;;;4.30;;
5121;SDS011;2563;52.242;7.956;2023-04-28T04:33:12;7.37;;;4.20;;
5121;SDS011;2563;52.242;7.956;2023-04-28T04:35:38;12.80;;;4.37;;
5121;SDS011;2563;52.242;7.956;2023-04-28T04:38:03;11.77;;;5.10;;
5121;SDS011;2563;52.242;7.956;2023-04-28T04:40:28;10.13;;;4.67;;
5121;SDS011;2563;52.242;7.956;2023-04-28T04:42:54;12.03;;;5.30;;
5121;SDS011;2563;52.242;7.956;2023-04-28T04:45:19;8.80;;;4.40;;
5121;SDS011;2563;52.242;7.956;2023-04-28T04:47:45;11.47;;;4.93;;
5121;SDS011;2563;52.242;7.956;2023-04-28T04:50:11;9.97;;;5.00;;
5121;SDS011;2563;52.242;7.956;2023-04-28T04:52:36;13.57;;;4.40;;
5121;SDS011;2563;52.242;7.956;2023-04-28T04:55:02;10.33;;;4.87;;
5121;SDS011;2563;52.242;7.956;2023-04-28T04:57:28;21.13;;;4.73;;
5121;SDS011;2563;52.242;7.956;2023-04-28T04:59:53;10.93;;;5.33;;
5121;SDS011;2563;52.242;7.956;2023-04-28T05:02:19;10.47;;;4.50;;
5121;SDS011;2563;52.242;7.956;2023-04-28T05:04:44;12.77;;;5.23;;
5121;SDS011;2563;52.242;7.956;2023-04-28T05:07:10;11.93;;;4.97;;
5121;SDS011;2563;52.242;7.956;2023-04-28T05:09:35;16.90;;;5.47;;
5121;SDS011;2563;52.242;7.956;2023-04-28T05:12:00;9.47;;;5.10;;
5121;SDS011;2563;52.242;7.956;2023-04-28T05:14:26;9.90;;;5.20;;
5121;SDS011;2563;52.242;7.956;2023-04-28T05:16:51;9.73;;;4.60;;
5121;SDS011;2563;52.242;7.956;2023-04-28T05:19:16;10.13;;;5.27;;
5121;SDS011;2563;52.242;7.956;2023-04-28T05:21:42;11.87;;;4.73;;
5121;SDS011;2563;52.242;7.956;2023-04-28T05:24:07;9.87;;;5.03;;
5121;SDS011;2563;52.242;7.956;2023-04-28T05:26:33;13.70;;;5.50;;
5121;SDS011;2563;52.242;7.956;2023-04-28T05:29:00;9.23;;;5.20;;
5121;SDS011;2563;52.242;7.956;2023-04-28T05:31:25;18.40;;;5.73;;
5121;SDS011;2563;52.242;7.956;2023-04-28T05:33:51;8.80;;;4.57;;
5121;SDS011;2563;52.242;7.956;2023-04-28T05:36:16;12.70;;;5.43;;
5121;SDS011;2563;52.242;7.956;2023-04-28T05:38:42;8.90;;;4.80;;
5121;SDS011;2563;52.242;7.956;2023-04-28T05:41:08;14.60;;;5.17;;
5121;SDS011;2563;52.242;7.956;2023-04-28T05:43:33;11.97;;;5.43;;
5121;SDS011;2563;52.242;7.956;2023-04-28T05:45:59;9.77;;;4.87;;
5121;SDS011;2563;52.242;7.956;2023-04-28T05:48:25;11.20;;;5.90;;
5121;SDS011;2563;52.242;7.956;2023-04-28T05:50:50;7.63;;;4.53;;
5121;SDS011;2563;52.242;7.956;2023-04-28T05:53:16;9.37;;;5.50;;
5121;SDS011;2563;52.242;7.956;2023-04-28T05:55:41;11.50;;;5.63;;
5121;SDS011;2563;52.242;7.956;2023-04-28T05:58:06;14.33;;;5.30;;
5121;SDS011;2563;52.242;7.956;2023-04-28T06:00:32;8.60;;;5.20;;
5121;SDS011;2563;52.242;7.956;2023-04-28T06:02:58;11.03;;;4.87;;
5121;SDS011;2563;52.242;7.956;2023-04-28T06:05:24;14.37;;;6.30;;
5121;SDS011;2563;52.242;7.956;2023-04-28T06:07:49;15.73;;;6.33;;
5121;SDS011;2563;52.242;7.956;2023-04-28T06:10:15;16.87;;;5.83;;
5121;SDS011;2563;52.242;7.956;2023-04-28T06:12:40;12.63;;;5.53;;
5121;SDS011;2563;52.242;7.956;2023-04-28T06:15:06;11.67;;;5.67;;
5121;SDS011;2563;52.242;7.956;2023-04-28T06:17:32;10.20;;;4.93;;
5121;SDS011;2563;52.242;7.956;2023-04-28T06:19:58;15.80;;;6.50;;
5121;SDS011;2563;52.242;7.956;2023-04-28T06:22:24;10.40;;;5.57;;
5121;SDS011;2563;52.242;7.956;2023-04-28T06:24:50;9.23;;;5.77;;
5121;SDS011;2563;52.242;7.956;2023-04-28T06:27:16;14.13;;;5.57;;
5121;SDS011;2563;52.242;7.956;2023-04-28T06:29:41;12.70;;;6.37;;
5121;SDS011;2563;52.242;7.956;2023-04-28T06:32:07;15.30;;;6.20;;
5121;SDS011;2563;52.242;7.956;2023-04-28T06:34:33;10.60;;;5.63;;
5121;SDS011;2563;52.242;7.956;2023-04-28T06:36:59;10.30;;;5.77;;
5121;SDS011;2563;52.242;7.956;2023-04-28T06:39:24;14.40;;;5.70;;
5121;SDS011;2563;52.242;7.956;2023-04-28T06:41:50;13.70;;;5.80;;
5121;SDS011;2563;52.242;7.956;2023-04-28T06:44:15;11.87;;;5.70;;
5121;SDS011;2563;52.242;7.956;2023-04-28T06:46:41;13.77;;;6.40;;
5121;SDS011;2563;52.242;7.956;2023-04-28T06:49:06;15.10;;;6.17;;
5121;SDS011;2563;52.242;7.956;2023-04-28T06:51:32;13.73;;;6.77;;
5121;SDS011;2563;52.242;7.956;2023-04-28T06:53:57;12.10;;;6.07;;
5121;SDS011;2563;52.242;7.956;2023-04-28T06:56:23;17.90;;;6.50;;
5121;SDS011;2563;52.242;7.956;2023-04-28T06:58:49;11.63;;;5.80;;
5121;SDS011;2563;52.242;7.956;2023-04-28T07:01:14;11.30;;;6.23;;
5121;SDS011;2563;52.242;7.956;2023-04-28T07:03:40;13.07;;;6.67;;
5121;SDS011;2563;52.242;7.956;2023-04-28T07:06:06;16.97;;;6.87;;
5121;SDS011;2563;52.242;7.956;2023-04-28T07:08:31;11.77;;;5.73;;
5121;SDS011;2563;52.242;7.956;2023-04-28T07:10:57;16.60;;;6.50;;
5121;SDS011;2563;52.242;7.956;2023-04-28T07:13:22;12.90;;;6.30;;
5121;SDS011;2563;52.242;7.956;2023-04-28T07:15:48;22.43;;;7.07;;
5121;SDS011;2563;52.242;7.956;2023-04-28T07:18:13;13.67;;;6.80;;
5121;SDS011;2563;52.242;7.956;2023-04-28T07:20:39;13.57;;;6.87;;
5121;SDS011;2563;52.242;7.956;2023-04-28T07:23:04;20.90;;;6.83;;
5121;SDS011;2563;52.242;7.956;2023-04-28T07:25:30;15.40;;;6.63;;
5121;SDS011;2563;52.242;7.956;2023-04-28T07:27:56;18.23;;;6.07;;
5121;SDS011;2563;52.242;7.956;2023-04-28T07:30:21;15.67;;;7.17;;
5121;SDS011;2563;52.242;7.956;2023-04-28T07:32:47;12.60;;;5.83;;
5121;SDS011;2563;52.242;7.956;2023-04-28T07:35:12;13.30;;;6.93;;
5121;SDS011;2563;52.242;7.956;2023-04-28T07:37:38;13.63;;;6.63;;
5121;SDS011;2563;52.242;7.956;2023-04-28T07:40:04;16.70;;;7.13;;
5121;SDS011;2563;52.242;7.956;2023-04-28T07:42:30;11.67;;;6.73;;
5121;SDS011;2563;52.242;7.956;2023-04-28T07:44:56;12.83;;;6.80;;
5121;SDS011;2563;52.242;7.956;2023-04-28T07:47:22;11.33;;;6.30;;
5121;SDS011;2563;52.242;7.956;2023-04-28T07:49:49;13.17;;;6.57;;
5121;SDS011;2563;52.242;7.956;2023-04-28T07:52:14;14.87;;;6.97;;
5121;SDS011;2563;52.242;7.956;2023-04-28T07:54:40;12.50;;;6.87;;
5121;SDS011;2563;52.242;7.956;2023-04-28T07:57:05;18.60;;;7.67;;
5121;SDS011;2563;52.242;7.956;2023-04-28T07:59:34;12.47;;;7.33;;
5121;SDS011;2563;52.242;7.956;2023-04-28T08:01:59;12.17;;;7.67;;
5121;SDS011;2563;52.242;7.956;2023-04-28T08:04:25;16.53;;;7.50;;
5121;SDS011;2563;52.242;7.956;2023-04-28T08:06:50;15.83;;;7.90;;
5121;SDS011;2563;52.242;7.956;2023-04-28T08:09:16;16.70;;;8.20;;
5121;SDS011;2563;52.242;7.956;2023-04-28T08:11:42;12.30;;;7.07;;
5121;SDS011;2563;52.242;7.956;2023-04-28T08:14:08;13.17;;;7.03;;
5121;SDS011;2563;52.242;7.956;2023-04-28T08:16:33;14.00;;;7.07;;
5121;SDS011;2563;52.242;7.956;2023-04-28T08:19:02;13.53;;;7.10;;
5121;SDS011;2563;52.242;7.956;2023-04-28T08:21:27;16.37;;;7.57;;
5121;SDS011;2563;52.242;7.956;2023-04-28T08:23:53;22.60;;;7.00;;
5121;SDS011;2563;52.242;7.956;2023-04-28T08:26:18;12.83;;;6.80;;
5121;SDS011;2563;52.242;7.956;2023-04-28T08:28:43;18.33;;;7.07;;
5121;SDS011;2563;52.242;7.956;2023-04-28T08:31:09;14.83;;;7.43;;
5121;SDS011;2563;52.242;7.956;2023-04-28T08:33:34;15.33;;;7.47;;
5121;SDS011;2563;52.242;7.956;2023-04-28T08:35:59;14.17;;;7.57;;
5121;SDS011;2563;52.242;7.956;2023-04-28T08:38:25;12.67;;;6.80;;
5121;SDS011;2563;52.242;7.956;2023-04-28T08:40:50;15.50;;;7.80;;
5121;SDS011;2563;52.242;7.956;2023-04-28T08:43:16;16.77;;;8.00;;
5121;SDS011;2563;52.242;7.956;2023-04-28T08:45:42;13.93;;;7.83;;
5121;SDS011;2563;52.242;7.956;2023-04-28T08:48:19;20.73;;;7.73;;
5121;SDS011;2563;52.242;7.956;2023-04-28T08:50:50;23.73;;;8.67;;
5121;SDS011;2563;52.242;7.956;2023-04-28T08:53:25;18.37;;;7.87;;
5121;SDS011;2563;52.242;7.956;2023-04-28T08:55:53;14.13;;;7.83;;
5121;SDS011;2563;52.242;7.956;2023-04-28T08:58:23;16.13;;;8.10;;
5121;SDS011;2563;52.242;7.956;2023-04-28T09:00:50;13.30;;;7.90;;
5121;SDS011;2563;52.242;7.956;2023-04-28T09:03:16;13.33;;;8.63;;
5121;SDS011;2563;52.242;7.956;2023-04-28T09:05:42;20.07;;;8.90;;
5121;SDS011;2563;52.242;7.956;2023-04-28T09:08:08;16.70;;;8.33;;
5121;SDS011;2563;52.242;7.956;2023-04-28T09:10:35;13.03;;;8.33;;
5121;SDS011;2563;52.242;7.956;2023-04-28T09:13:02;17.20;;;7.77;;
5121;SDS011;2563;52.242;7.956;2023-04-28T09:18:01;14.27;;;8.50;;
5121;SDS011;2563;52.242;7.956;2023-04-28T09:20:28;17.80;;;7.60;;
5121;SDS011;2563;52.242;7.956;2023-04-28T09:22:56;16.93;;;7.60;;
5121;SDS011;2563;52.242;7.956;2023-04-28T09:25:58;17.97;;;9.10;;
5121;SDS011;2563;52.242;7.956;2023-04-28T09:28:24;27.27;;;9.00;;
5121;SDS011;2563;52.242;7.956;2023-04-28T09:30:49;15.53;;;7.70;;
5121;SDS011;2563;52.242;7.956;2023-04-28T09:33:15;18.40;;;9.17;;
5121;SDS011;2563;52.242;7.956;2023-04-28T09:35:41;13.97;;;7.63;;
5121;SDS011;2563;52.242;7.956;2023-04-28T09:38:08;15.43;;;7.93;;
5121;SDS011;2563;52.242;7.956;2023-04-28T09:40:47;15.30;;;8.37;;
5121;SDS011;2563;52.242;7.956;2023-04-28T09:45:52;27.17;;;9.43;;
5121;SDS011;2563;52.242;7.956;2023-04-28T09:48:25;17.73;;;9.27;;
5121;SDS011;2563;52.242;7.956;2023-04-28T09:50:56;16.70;;;9.53;;
5121;SDS011;2563;52.242;7.956;2023-04-28T09:53:23;15.80;;;8.10;;
5121;SDS011;2563;52.242;7.956;2023-04-28T09:55:50;13.77;;;8.20;;
5121;SDS011;2563;52.242;7.956;2023-04-28T09:58:18;25.87;;;9.80;;
5121;SDS011;2563;52.242;7.956;2023-04-28T10:00:46;20.87;;;8.20;;
5121;SDS011;2563;52.242;7.956;2023-04-28T10:03:16;15.80;;;7.97;;
5121;SDS011;2563;52.242;7.956;2023-04-28T10:05:44;19.40;;;9.17;;
5121;SDS011;2563;52.242;7.956;2023-04-28T10:08:10;17.80;;;8.53;;
5121;SDS011;2563;52.242;7.956;2023-04-28T10:10:37;20.20;;;9.10;;
5121;SDS011;2563;52.242;7.956;2023-04-28T10:13:03;17.77;;;9.17;;
5121;SDS011;2563;52.242;7.956;2023-04-28T10:15:29;24.53;;;10.40;;
5121;SDS011;2563;52.242;7.956;2023-04-28T10:17:56;16.57;;;8.80;;
5121;SDS011;2563;52.242;7.956;2023-04-28T10:20:23;14.40;;;8.23;;
5121;SDS011;2563;52.242;7.956;2023-04-28T10:23:04;17.70;;;8.30;;
5121;SDS011;2563;52.242;7.956;2023-04-28T10:25:34;16.50;;;8.27;;
5121;SDS011;2563;52.242;7.956;2023-04-28T10:28:05;15.40;;;7.80;;
5121;SDS011;2563;52.242;7.956;2023-04-28T10:30:33;18.73;;;8.20;;
5121;SDS011;2563;52.242;7.956;2023-04-28T10:38:02;19.77;;;8.70;;
5121;SDS011;2563;52.242;7.956;2023-04-28T10:40:43;13.07;;;8.07;;
5121;SDS011;2563;52.242;7.956;2023-04-28T10:43:12;17.00;;;8.80;;
5121;SDS011;2563;52.242;7.956;2023-04-28T10:51:36;15.67;;;8.10;;
5121;SDS011;2563;52.242;7.956;2023-04-28T10:56:07;11.93;;;7.30;;
5121;SDS011;2563;52.242;7.956;2023-04-28T10:58:33;13.53;;;7.83;;
5121;SDS011;2563;52.242;7.956;2023-04-28T11:06:17;12.27;;;7.50;;
5121;SDS011;2563;52.242;7.956;2023-04-28T11:08:59;19.80;;;8.23;;
5121;SDS011;2563;52.242;7.956;2023-04-28T11:11:32;12.20;;;7.80;;
5121;SDS011;2563;52.242;7.956;2023-04-28T11:17:16;14.57;;;7.83;;
5121;SDS011;2563;52.242;7.956;2023-04-28T11:19:44;11.43;;;7.40;;
5121;SDS011;2563;52.242;7.956;2023-04-28T11:22:16;11.50;;;6.87;;
5121;SDS011;2563;52.242;7.956;2023-04-28T11:25:04;13.60;;;8.20;;
5121;SDS011;2563;52.242;7.956;2023-04-28T11:27:30;13.53;;;7.50;;
5121;SDS011;2563;52.242;7.956;2023-04-28T11:29:56;12.73;;;7.67;;
5121;SDS011;2563;52.242;7.956;2023-04-28T11:32:26;17.23;;;8.27;;
5121;SDS011;2563;52.242;7.956;2023-04-28T11:34:52;12.20;;;7.77;;
5121;SDS011;2563;52.242;7.956;2023-04-28T11:37:18;13.43;;;7.00;;
5121;SDS011;2563;52.242;7.956;2023-04-28T11:39:45;13.57;;;6.93;;
5121;SDS011;2563;52.242;7.956;2023-04-28T11:42:10;12.60;;;7.90;;
5121;SDS011;2563;52.242;7.956;2023-04-28T11:44:36;10.33;;;7.63;;
5121;SDS011;2563;52.242;7.956;2023-04-28T11:47:02;12.43;;;7.23;;
5121;SDS011;2563;52.242;7.956;2023-04-28T11:49:30;14.07;;;7.90;;
5121;SDS011;2563;52.242;7.956;2023-04-28T11:52:05;12.33;;;7.20;;
5121;SDS011;2563;52.242;7.956;2023-04-28T11:54:32;12.53;;;7.83;;
5121;SDS011;2563;52.242;7.956;2023-04-28T11:56:58;10.30;;;7.00;;
5121;SDS011;2563;52.242;7.956;2023-04-28T11:59:28;11.67;;;7.50;;
5121;SDS011;2563;52.242;7.956;2023-04-28T12:01:59;13.63;;;7.70;;
5121;SDS011;2563;52.242;7.956;2023-04-28T12:09:27;10.50;;;6.90;;
5121;SDS011;2563;52.242;7.956;2023-04-28T12:11:54;12.47;;;7.90;;
5121;SDS011;2563;52.242;7.956;2023-04-28T12:14:21;12.93;;;7.27;;
5121;SDS011;2563;52.242;7.956;2023-04-28T12:16:47;9.40;;;6.73;;
5121;SDS011;2563;52.242;7.956;2023-04-28T12:19:13;12.90;;;8.40;;
5121;SDS011;2563;52.242;7.956;2023-04-28T12:21:40;10.13;;;7.30;;
5121;SDS011;2563;52.242;7.956;2023-04-28T12:24:19;13.73;;;7.37;;
5121;SDS011;2563;52.242;7.956;2023-04-28T12:26:46;15.70;;;9.10;;
5121;SDS011;2563;52.242;7.956;2023-04-28T12:32:00;11.60;;;7.53;;
5121;SDS011;2563;52.242;7.956;2023-04-28T12:34:26;13.17;;;7.90;;
5121;SDS011;2563;52.242;7.956;2023-04-28T12:36:53;15.70;;;7.90;;
5121;SDS011;2563;52.242;7.956;2023-04-28T12:39:19;13.23;;;9.30;;
5121;SDS011;2563;52.242;7.956;2023-04-28T12:41:46;10.60;;;8.07;;
5121;SDS011;2563;52.242;7.956;2023-04-28T12:44:12;11.67;;;7.83;;
5121;SDS011;2563;52.242;7.956;2023-04-28T12:46:39;13.80;;;8.67;;
5121;SDS011;2563;52.242;7.956;2023-04-28T12:49:05;14.40;;;8.20;;
5121;SDS011;2563;52.242;7.956;2023-04-28T12:51:30;12.10;;;8.47;;
5121;SDS011;2563;52.242;7.956;2023-04-28T12:53:56;13.30;;;8.87;;
5121;SDS011;2563;52.242;7.956;2023-04-28T12:56:22;14.33;;;9.57;;
5121;SDS011;2563;52.242;7.956;2023-04-28T12:58:47;15.20;;;9.30;;
5121;SDS011;2563;52.242;7.956;2023-04-28T13:01:13;17.90;;;9.93;;
5121;SDS011;2563;52.242;7.956;2023-04-28T13:03:39;16.53;;;8.50;;
5121;SDS011;2563;52.242;7.956;2023-04-28T13:06:05;21.33;;;8.73;;
5121;SDS011;2563;52.242;7.956;2023-04-28T13:08:31;15.17;;;9.97;;
5121;SDS011;2563;52.242;7.956;2023-04-28T13:10:58;14.67;;;9.47;;
5121;SDS011;2563;52.242;7.956;2023-04-28T13:13:23;16.07;;;9.90;;
5121;SDS011;2563;52.242;7.956;2023-04-28T13:15:49;16.30;;;9.70;;
5121;SDS011;2563;52.242;7.956;2023-04-28T13:18:15;17.40;;;8.90;;
5121;SDS011;2563;52.242;7.956;2023-04-28T13:20:41;15.80;;;9.73;;
5121;SDS011;2563;52.242;7.956;2023-04-28T13:23:06;20.53;;;10.13;;
5121;SDS011;2563;52.242;7.956;2023-04-28T13:25:31;15.30;;;10.10;;
5121;SDS011;2563;52.242;7.956;2023-04-28T13:27:57;17.57;;;9.97;;
5121;SDS011;2563;52.242;7.956;2023-04-28T13:30:22;15.93;;;9.90;;
5121;SDS011;2563;52.242;7.956;2023-04-28T13:32:47;14.13;;;9.70;;
5121;SDS011;2563;52.242;7.956;2023-04-28T13:35:13;15.10;;;10.67;;
5121;SDS011;2563;52.242;7.956;2023-04-28T13:37:38;15.30;;;10.60;;
5121;SDS011;2563;52.242;7.956;2023-04-28T13:40:09;15.03;;;10.40;;
5121;SDS011;2563;52.242;7.956;2023-04-28T13:42:35;21.40;;;11.03;;
5121;SDS011;2563;52.242;7.956;2023-04-28T13:45:01;18.93;;;10.60;;
5121;SDS011;2563;52.242;7.956;2023-04-28T13:47:26;22.67;;;10.77;;
5121;SDS011;2563;52.242;7.956;2023-04-28T13:49:52;16.73;;;10.83;;
5121;SDS011;2563;52.242;7.956;2023-04-28T13:52:17;20.07;;;11.93;;
5121;SDS011;2563;52.242;7.956;2023-04-28T13:54:42;16.70;;;11.20;;
5121;SDS011;2563;52.242;7.956;2023-04-28T13:57:08;19.60;;;11.33;;
5121;SDS011;2563;52.242;7.956;2023-04-28T13:59:33;17.87;;;12.27;;
5121;SDS011;2563;52.242;7.956;2023-04-28T14:01:59;15.90;;;10.40;;
5121;SDS011;2563;52.242;7.956;2023-04-28T14:04:24;17.27;;;12.50;;
5121;SDS011;2563;52.242;7.956;2023-04-28T14:06:50;17.10;;;11.27;;
5121;SDS011;2563;52.242;7.956;2023-04-28T14:09:16;18.70;;;12.20;;
5121;SDS011;2563;52.242;7.956;2023-04-28T14:11:41;19.27;;;11.80;;
5121;SDS011;2563;52.242;7.956;2023-04-28T14:14:07;20.10;;;12.80;;
5121;SDS011;2563;52.242;7.956;2023-04-28T14:16:32;21.70;;;12.20;;
5121;SDS011;2563;52.242;7.956;2023-04-28T14:18:57;19.70;;;11.77;;
5121;SDS011;2563;52.242;7.956;2023-04-28T14:21:23;19.27;;;13.10;;
5121;SDS011;2563;52.242;7.956;2023-04-28T14:23:48;17.00;;;11.53;;
5121;SDS011;2563;52.242;7.956;2023-04-28T14:26:14;18.60;;;12.00;;
5121;SDS011;2563;52.242;7.956;2023-04-28T14:28:39;19.83;;;12.90;;
5121;SDS011;2563;52.242;7.956;2023-04-28T14:31:06;20.97;;;12.43;;
5121;SDS011;2563;52.242;7.956;2023-04-28T14:33:32;19.20;;;12.03;;
5121;SDS011;2563;52.242;7.956;2023-04-28T14:35:58;21.93;;;12.20;;
5121;SDS011;2563;52.242;7.956;2023-04-28T14:38:25;20.47;;;13.40;;
5121;SDS011;2563;52.242;7.956;2023-04-28T14:40:52;19.07;;;12.80;;
5121;SDS011;2563;52.242;7.956;2023-04-28T14:43:17;17.50;;;12.30;;
5121;SDS011;2563;52.242;7.956;2023-04-28T14:45:43;20.07;;;12.37;;
5121;SDS011;2563;52.242;7.956;2023-04-28T14:48:08;22.10;;;12.83;;
5121;SDS011;2563;52.242;7.956;2023-04-28T14:50:35;19.13;;;12.70;;
5121;SDS011;2563;52.242;7.956;2023-04-28T14:53:00;21.20;;;13.60;;
5121;SDS011;2563;52.242;7.956;2023-04-28T14:55:30;20.53;;;13.57;;
5121;SDS011;2563;52.242;7.956;2023-04-28T14:57:56;24.37;;;14.00;;
5121;SDS011;2563;52.242;7.956;2023-04-28T15:00:22;20.80;;;13.83;;
5121;SDS011;2563;52.242;7.956;2023-04-28T15:02:47;24.77;;;13.87;;
5121;SDS011;2563;52.242;7.956;2023-04-28T15:05:13;21.90;;;14.53;;
5121;SDS011;2563;52.242;7.956;2023-04-28T15:07:39;21.90;;;13.80;;
5121;SDS011;2563;52.242;7.956;2023-04-28T15:10:05;19.93;;;13.23;;
5121;SDS011;2563;52.242;7.956;2023-04-28T15:12:31;24.80;;;13.93;;
5121;SDS011;2563;52.242;7.956;2023-04-28T15:14:58;21.93;;;14.33;;
5121;SDS011;2563;52.242;7.956;2023-04-28T15:17:24;23.90;;;13.93;;
5121;SDS011;2563;52.242;7.956;2023-04-28T15:19:49;20.60;;;12.90;;
5121;SDS011;2563;52.242;7.956;2023-04-28T15:22:15;24.40;;;14.73;;
5121;SDS011;2563;52.242;7.956;2023-04-28T15:24:41;20.30;;;13.20;;
5121;SDS011;2563;52.242;7.956;2023-04-28T15:27:07;20.53;;;14.00;;
5121;SDS011;2563;52.242;7.956;2023-04-28T15:29:32;23.93;;;13.77;;
5121;SDS011;2563;52.242;7.956;2023-04-28T15:31:58;27.73;;;13.77;;